Time;durP1;ratioP1;P1;durP2;ratioP2;P2;SDS_P1;SDS_P2;PMS_P1;PMS_P2;Temp;Humidity;BMP_temperature;BMP_pressure;BME280_temperature;BME280_humidity;BME280_pressure;Samples;Min_cycle;Max_cycle;Signal;HPM_P1;HPM_P2
2021/12/11 00:01:40;;;;;;;;;12.33;12.00;;;;;-149.00;100.00;66333.84;5122168;27;45180;-76
2021/12/11 00:04:09;;;;;;;;;19.00;16.00;;;;;-149.00;100.00;66333.84;5120271;27;46485;-76
2021/12/11 00:06:42;;;;;;;;;13.00;12.00;;;;;-149.00;100.00;66333.84;5120554;27;48175;-75
2021/12/11 00:09:19;;;;;;;;;13.67;11.67;;;;;-149.00;100.00;66333.84;5120518;27;45697;-76
2021/12/11 00:11:50;;;;;;;;;13.67;11.67;;;;;-149.00;100.00;66333.84;5120640;27;45338;-76
2021/12/11 00:14:16;;;;;;;;;16.67;15.33;;;;;-149.00;100.00;66333.84;5120542;27;47136;-76
2021/12/11 00:16:43;;;;;;;;;13.33;13.33;;;;;-149.00;100.00;66333.84;5120303;27;46823;-76
2021/12/11 00:19:29;;;;;;;;;17.25;16.50;;;;;-149.00;100.00;66333.84;5121471;27;45348;-76
2021/12/11 00:22:04;;;;;;;;;18.00;15.67;;;;;-149.00;100.00;66333.84;5120501;27;45381;-76
2021/12/11 00:24:33;;;;;;;;;16.33;16.33;;;;;-149.00;100.00;66333.84;5121577;27;45349;-76
2021/12/11 00:27:05;;;;;;;;;17.00;17.00;;;;;-149.00;100.00;66333.84;5120041;27;47304;-76
2021/12/11 00:29:33;;;;;;;;;9.00;8.67;;;;;-149.00;100.00;66333.84;5121748;27;45314;-76
2021/12/11 00:32:04;;;;;;;;;9.67;8.00;;;;;-149.00;100.00;66333.84;5120409;27;45265;-75
2021/12/11 00:34:30;;;;;;;;;19.33;17.33;;;;;-149.00;100.00;66333.84;5119563;27;45911;-76
2021/12/11 00:37:00;;;;;;;;;14.33;13.00;;;;;-149.00;100.00;66333.84;5121396;27;46323;-76
2021/12/11 00:39:26;;;;;;;;;12.00;12.00;;;;;-149.00;100.00;66333.84;5120137;27;45227;-76
2021/12/11 00:41:55;;;;;;;;;10.67;9.67;;;;;-149.00;100.00;66333.84;5062679;27;1243810;-76
2021/12/11 00:44:33;;;;;;;;;10.33;9.00;;;;;-149.00;100.00;66333.84;5101981;27;45615;-76
2021/12/11 00:47:26;;;;;;;;;8.33;8.33;;;;;-149.00;100.00;66333.84;5101801;27;45726;-76
2021/12/11 00:49:56;;;;;;;;;14.33;11.00;;;;;-149.00;100.00;66333.84;5099127;27;45223;-76
2021/12/11 00:52:32;;;;;;;;;11.67;10.00;;;;;-149.00;100.00;66333.84;5100431;27;45360;-76
2021/12/11 00:54:59;;;;;;;;;9.00;9.00;;;;;-149.00;100.00;66333.84;5101807;27;45511;-76
2021/12/11 00:57:25;;;;;;;;;9.67;9.33;;;;;-149.00;100.00;66333.84;5101660;27;46056;-76
2021/12/11 01:00:06;;;;;;;;;8.33;8.33;;;;;-149.00;100.00;66333.84;5100403;27;45302;-76
2021/12/11 01:02:32;;;;;;;;;5.00;5.00;;;;;-149.00;100.00;66333.84;5099533;27;45349;-76
2021/12/11 01:04:58;;;;;;;;;9.33;5.33;;;;;-149.00;100.00;66333.84;5099954;27;46826;-76
2021/12/11 01:07:28;;;;;;;;;8.67;6.33;;;;;-149.00;100.00;66333.84;5100150;27;47231;-76
2021/12/11 01:10:00;;;;;;;;;5.00;5.00;;;;;-149.00;100.00;66333.84;5101616;27;45295;-76
2021/12/11 01:12:39;;;;;;;;;7.33;6.67;;;;;-149.00;100.00;66333.84;5101710;27;45482;-76
2021/12/11 01:15:09;;;;;;;;;5.33;5.00;;;;;-149.00;100.00;66333.84;5100009;27;46969;-76
2021/12/11 01:17:48;;;;;;;;;8.00;8.00;;;;;-149.00;100.00;66333.84;5099912;27;47965;-76
2021/12/11 01:20:22;;;;;;;;;7.00;7.00;;;;;-149.00;100.00;66333.84;5099708;27;45764;-76
2021/12/11 01:22:50;;;;;;;;;8.67;8.67;;;;;-149.00;100.00;66333.84;5101475;27;45711;-76
2021/12/11 01:25:25;;;;;;;;;3.67;3.67;;;;;-149.00;100.00;66333.84;5099772;27;47055;-76
2021/12/11 01:28:02;;;;;;;;;5.33;5.33;;;;;-149.00;100.00;66333.84;5099703;27;47432;-76
2021/12/11 01:30:35;;;;;;;;;8.00;7.00;;;;;-149.00;100.00;66333.84;5099736;27;45383;-77
2021/12/11 01:33:02;;;;;;;;;5.67;5.67;;;;;-149.00;100.00;66333.84;5101221;27;45388;-76
2021/12/11 01:35:28;;;;;;;;;8.00;5.00;;;;;-149.00;100.00;66333.84;5099532;27;47186;-76
2021/12/11 01:38:27;;;;;;;;;6.33;5.33;;;;;-149.00;100.00;66333.84;5101146;27;46477;-76
2021/12/11 01:40:57;;;;;;;;;3.33;3.33;;;;;-149.00;100.00;66333.84;5104209;27;45340;-76
2021/12/11 01:43:27;;;;;;;;;7.00;7.00;;;;;-149.00;100.00;66333.84;5120228;27;45330;-76
2021/12/11 01:45:54;;;;;;;;;8.00;6.00;;;;;-149.00;100.00;66333.84;5121581;27;45483;-75
2021/12/11 01:48:27;;;;;;;;;2.67;2.67;;;;;-149.00;100.00;66333.84;5120025;27;47325;-76
2021/12/11 01:50:57;;;;;;;;;8.00;5.00;;;;;-149.00;100.00;66333.84;5121531;27;45469;-76
2021/12/11 01:53:30;;;;;;;;;9.00;7.67;;;;;-149.00;100.00;66333.84;5121544;27;45420;-76
2021/12/11 01:56:01;;;;;;;;;5.00;5.00;;;;;-149.00;100.00;66333.84;5121534;27;45320;-76
2021/12/11 01:58:35;;;;;;;;;4.67;4.67;;;;;-149.00;100.00;66333.84;5119974;27;48554;-76
2021/12/11 02:01:09;;;;;;;;;4.00;4.00;;;;;-149.00;100.00;66333.84;5121289;27;45286;-76
2021/12/11 02:03:36;;;;;;;;;7.00;7.00;;;;;-149.00;100.00;66333.84;5119660;27;45509;-76
2021/12/11 02:06:02;;;;;;;;;8.67;7.67;;;;;-149.00;100.00;66333.84;5119935;27;45918;-76
2021/12/11 02:08:35;;;;;;;;;6.67;6.67;;;;;-149.00;100.00;66333.84;5119759;27;48097;-76
2021/12/11 02:11:03;;;;;;;;;9.00;8.67;;;;;-149.00;100.00;66333.84;5121220;27;45310;-75
2021/12/11 02:13:40;;;;;;;;;6.33;6.33;;;;;-149.00;100.00;66333.84;5121160;27;45164;-76
2021/12/11 02:16:15;;;;;;;;;2.00;2.00;;;;;-149.00;100.00;66333.84;5121186;27;45435;-76
2021/12/11 02:18:45;;;;;;;;;9.33;8.33;;;;;-149.00;100.00;66333.84;5120654;27;45415;-77
2021/12/11 02:21:23;;;;;;;;;9.00;5.00;;;;;-149.00;100.00;66333.84;5119656;27;45342;-76
2021/12/11 02:24:02;;;;;;;;;5.00;5.00;;;;;-149.00;100.00;66333.84;5119661;27;45376;-76
2021/12/11 02:26:30;;;;;;;;;8.00;7.00;;;;;-149.00;100.00;66333.84;5119523;27;47409;-76
2021/12/11 02:29:23;;;;;;;;;4.67;4.33;;;;;-149.00;100.00;66333.84;5119691;27;47418;-76
2021/12/11 02:32:26;;;;;;;;;7.00;5.67;;;;;-149.00;100.00;66333.84;5118231;27;45561;-76
2021/12/11 02:34:58;;;;;;;;;6.00;6.00;;;;;-149.00;100.00;66333.84;5120824;27;45300;-76
2021/12/11 02:37:44;;;;;;;;;7.67;5.33;;;;;-149.00;100.00;66333.84;5119337;27;46169;-76
2021/12/11 02:40:23;;;;;;;;;4.67;4.67;;;;;-149.00;100.00;66333.84;5119302;27;47350;-76
2021/12/11 02:42:58;;;;;;;;;6.67;6.67;;;;;-149.00;100.00;66333.84;5079400;27;45486;-76
2021/12/11 02:45:32;;;;;;;;;2.67;2.67;;;;;-149.00;100.00;66333.84;5079826;28;45247;-76
2021/12/11 02:48:08;;;;;;;;;7.00;6.67;;;;;-149.00;100.00;66333.84;5079533;28;45324;-76
2021/12/11 02:50:41;;;;;;;;;4.00;4.00;;;;;-149.00;100.00;66333.84;5094982;27;47958;-76
2021/12/11 02:53:09;;;;;;;;;3.67;3.67;;;;;-149.00;100.00;66333.84;5079426;28;45349;-76
2021/12/11 02:55:46;;;;;;;;;5.67;3.33;;;;;-149.00;100.00;66333.84;5079889;28;45511;-76
2021/12/11 02:58:19;;;;;;;;;6.00;4.00;;;;;-149.00;100.00;66333.84;5078194;28;46290;-75
2021/12/11 03:00:52;;;;;;;;;3.00;3.00;;;;;-149.00;100.00;66333.84;5079463;27;45408;-75
2021/12/11 03:03:26;;;;;;;;;3.67;3.67;;;;;-149.00;100.00;66333.84;5077638;28;45334;-76
2021/12/11 03:06:02;;;;;;;;;6.67;4.00;;;;;-149.00;100.00;66333.84;5078166;28;45404;-76
2021/12/11 03:08:27;;;;;;;;;7.00;5.33;;;;;-149.00;100.00;66333.84;5078089;27;46299;-76
2021/12/11 03:11:02;;;;;;;;;5.00;5.00;;;;;-149.00;100.00;66333.84;5079353;28;45353;-76
2021/12/11 03:13:29;;;;;;;;;6.00;6.00;;;;;-149.00;100.00;66333.84;5079275;28;45275;-75
2021/12/11 03:15:55;;;;;;;;;6.00;5.33;;;;;-149.00;100.00;66333.84;5079518;27;45374;-76
2021/12/11 03:18:22;;;;;;;;;6.00;4.33;;;;;-149.00;100.00;66333.84;5078983;27;45493;-76
2021/12/11 03:20:49;;;;;;;;;5.00;5.00;;;;;-149.00;100.00;66333.84;5079158;28;46741;-76
2021/12/11 03:23:14;;;;;;;;;1.00;1.00;;;;;-149.00;100.00;66333.84;5077906;28;45315;-76
2021/12/11 03:25:40;;;;;;;;;8.00;8.00;;;;;-149.00;100.00;66333.84;5080706;28;45266;-76
2021/12/11 03:28:07;;;;;;;;;4.33;4.33;;;;;-149.00;100.00;66333.84;5082715;28;45287;-76
2021/12/11 03:30:37;;;;;;;;;4.00;4.00;;;;;-149.00;100.00;66333.84;5081191;28;48327;-76
2021/12/11 03:33:10;;;;;;;;;4.33;4.33;;;;;-149.00;100.00;66333.84;5082578;28;45285;-76
2021/12/11 03:35:36;;;;;;;;;5.00;4.00;;;;;-149.00;100.00;66333.84;5081032;28;45338;-75
2021/12/11 03:38:02;;;;;;;;;6.75;6.00;;;;;-149.00;100.00;66333.84;5098245;27;47154;-76
2021/12/11 03:40:27;;;;;;;;;4.00;4.00;;;;;-149.00;100.00;66333.84;5100048;27;47334;-76
2021/12/11 03:42:54;;;;;;;;;9.50;6.75;;;;;-149.00;100.00;66333.84;5122003;27;45262;-75
2021/12/11 03:45:26;;;;;;;;;6.25;6.00;;;;;-149.00;100.00;66333.84;5122396;27;45286;-76
2021/12/11 03:48:02;;;;;;;;;6.25;4.00;;;;;-149.00;100.00;66333.84;5123374;27;45310;-76
2021/12/11 03:50:29;;;;;;;;;7.00;7.00;;;;;-149.00;100.00;66333.84;5121749;27;47190;-76
2021/12/11 03:52:55;;;;;;;;;6.00;6.00;;;;;-149.00;100.00;66333.84;5123351;27;45229;-76
2021/12/11 03:55:26;;;;;;;;;7.67;5.67;;;;;-149.00;100.00;66333.84;5122368;27;45666;-75
2021/12/11 03:57:59;;;;;;;;;4.00;4.00;;;;;-149.00;100.00;66333.84;5123364;27;45238;-77
2021/12/11 04:00:38;;;;;;;;;7.00;7.00;;;;;-149.00;100.00;66333.84;5123172;27;45496;-76
2021/12/11 04:03:07;;;;;;;;;7.33;6.00;;;;;-149.00;100.00;66333.84;5123150;27;45218;-76
2021/12/11 04:05:36;;;;;;;;;5.33;3.00;;;;;-149.00;100.00;66333.84;5121781;27;45357;-75
2021/12/11 04:08:03;;;;;;;;;8.33;6.00;;;;;-149.00;100.00;66333.84;5123100;27;45696;-75
2021/12/11 04:10:29;;;;;;;;;3.67;3.00;;;;;-149.00;100.00;66333.84;5123009;27;45632;-76
2021/12/11 04:12:58;;;;;;;;;3.33;3.33;;;;;-149.00;100.00;66333.84;5123048;27;45218;-76
2021/12/11 04:15:25;;;;;;;;;5.67;5.67;;;;;-149.00;100.00;66333.84;5121899;27;45330;-76
2021/12/11 04:17:51;;;;;;;;;8.33;6.67;;;;;-149.00;100.00;66333.84;5121456;27;46317;-76
2021/12/11 04:20:21;;;;;;;;;4.00;4.00;;;;;-149.00;100.00;66333.84;5122648;27;46326;-76
2021/12/11 04:22:48;;;;;;;;;4.33;4.33;;;;;-149.00;100.00;66333.84;5123071;27;46086;-76
2021/12/11 04:25:17;;;;;;;;;6.67;3.33;;;;;-149.00;100.00;66333.84;5122857;27;45308;-76
2021/12/11 04:27:42;;;;;;;;;3.00;2.33;;;;;-149.00;100.00;66333.84;5122905;27;45228;-76
2021/12/11 04:30:10;;;;;;;;;5.00;5.00;;;;;-149.00;100.00;66333.84;5121436;27;48096;-76
2021/12/11 04:32:38;;;;;;;;;2.00;2.00;;;;;-149.00;100.00;66333.84;5121596;27;45566;-75
2021/12/11 04:35:06;;;;;;;;;6.33;6.33;;;;;-149.00;100.00;66333.84;5122619;27;45364;-76
2021/12/11 04:37:32;;;;;;;;;6.33;4.00;;;;;-149.00;100.00;66333.84;5121373;27;46534;-76
2021/12/11 04:40:07;;;;;;;;;4.00;4.00;;;;;-149.00;100.00;66333.84;5122592;27;45319;-76
2021/12/11 04:42:56;;;;;;;;;4.67;2.67;;;;;-149.00;100.00;66333.84;5102008;27;45506;-76
2021/12/11 04:45:32;;;;;;;;;7.33;3.00;;;;;-149.00;100.00;66333.84;5101962;27;45378;-75
2021/12/11 04:48:10;;;;;;;;;3.00;2.00;;;;;-149.00;100.00;66333.84;5101713;27;45433;-76
2021/12/11 04:50:46;;;;;;;;;3.00;3.00;;;;;-149.00;100.00;66333.84;5100028;27;47083;-76
2021/12/11 05:11:38;;;;;;;;;3.50;3.50;;;;;-149.00;100.00;66333.84;5101382;27;45754;-76
2021/12/11 05:14:05;;;;;;;;;6.25;6.00;;;;;-149.00;100.00;66333.84;5101624;27;45468;-76
2021/12/11 05:16:31;;;;;;;;;8.67;4.00;;;;;-149.00;100.00;66333.84;5101402;27;45365;-76
2021/12/11 05:18:57;;;;;;;;;4.67;4.00;;;;;-149.00;100.00;66333.84;5101049;27;45326;-75
2021/12/11 05:21:22;;;;;;;;;2.75;2.75;;;;;-149.00;100.00;66333.84;5100101;27;47617;-75
2021/12/11 05:23:50;;;;;;;;;3.25;3.25;;;;;-149.00;100.00;66333.84;5099901;27;45315;-76
2021/12/11 05:26:18;;;;;;;;;5.00;3.75;;;;;-149.00;100.00;66333.84;5101496;27;45270;-75
2021/12/11 05:28:44;;;;;;;;;3.25;3.25;;;;;-149.00;100.00;66333.84;5101181;27;45435;-76
2021/12/11 05:31:10;;;;;;;;;4.67;4.00;;;;;-149.00;100.00;66333.84;5099681;27;47268;-75
2021/12/11 05:33:37;;;;;;;;;2.67;2.67;;;;;-149.00;100.00;66333.84;5099679;27;45241;-75
2021/12/11 05:36:06;;;;;;;;;3.67;3.67;;;;;-149.00;100.00;66333.84;5101330;27;45359;-76
2021/12/11 05:38:33;;;;;;;;;4.00;4.00;;;;;-149.00;100.00;66333.84;5099723;27;47032;-75
2021/12/11 05:41:04;;;;;;;;;2.00;2.00;;;;;-149.00;100.00;66333.84;5104975;27;48050;-76
2021/12/11 05:43:31;;;;;;;;;4.67;4.00;;;;;-149.00;100.00;66333.84;5120160;27;45311;-76
2021/12/11 05:45:57;;;;;;;;;4.67;3.67;;;;;-149.00;100.00;66333.84;5121522;27;45286;-75
2021/12/11 05:48:23;;;;;;;;;3.00;3.00;;;;;-149.00;100.00;66333.84;5120840;27;45289;-75
2021/12/11 05:50:53;;;;;;;;;5.50;5.00;;;;;-149.00;100.00;66333.84;5120190;27;47427;-75
2021/12/11 05:53:20;;;;;;;;;3.25;3.00;;;;;-149.00;100.00;66333.84;5121467;27;45490;-76
2021/12/11 05:55:48;;;;;;;;;4.67;2.00;;;;;-149.00;100.00;66333.84;5121611;27;45261;-76
2021/12/11 05:58:22;;;;;;;;;7.00;3.50;;;;;-149.00;100.00;66333.84;5121509;27;45260;-76
2021/12/11 06:00:49;;;;;;;;;4.00;4.00;;;;;-149.00;100.00;66333.84;5119753;27;47321;-75
2021/12/11 06:03:16;;;;;;;;;4.25;4.25;;;;;-149.00;100.00;66333.84;5121166;27;45472;-75
2021/12/11 06:05:42;;;;;;;;;3.00;3.00;;;;;-149.00;100.00;66333.84;5121412;27;45330;-77
2021/12/11 06:08:09;;;;;;;;;7.75;6.50;;;;;-149.00;100.00;66333.84;5119854;27;46032;-75
2021/12/11 06:10:36;;;;;;;;;5.00;4.00;;;;;-149.00;100.00;66333.84;5121214;27;46189;-76
2021/12/11 06:13:02;;;;;;;;;3.00;3.00;;;;;-149.00;100.00;66333.84;5119833;27;46171;-76
2021/12/11 06:15:29;;;;;;;;;6.00;6.00;;;;;-149.00;100.00;66333.84;5121565;27;45273;-76
2021/12/11 06:17:55;;;;;;;;;12.75;11.50;;;;;-149.00;100.00;66333.84;5119547;27;47201;-75
2021/12/11 06:20:26;;;;;;;;;6.25;6.00;;;;;-149.00;100.00;66333.84;5118440;27;45470;-74
2021/12/11 06:22:52;;;;;;;;;5.50;5.50;;;;;-149.00;100.00;66333.84;5120174;27;45368;-76
2021/12/11 06:25:28;;;;;;;;;4.50;4.50;;;;;-149.00;100.00;66333.84;5120888;27;45266;-75
2021/12/11 06:27:55;;;;;;;;;6.00;6.00;;;;;-149.00;100.00;66333.84;5120841;27;45210;-74
2021/12/11 06:30:22;;;;;;;;;7.00;7.00;;;;;-149.00;100.00;66333.84;5120860;27;45296;-75
2021/12/11 06:32:49;;;;;;;;;6.00;6.00;;;;;-149.00;100.00;66333.84;5119329;27;45330;-74
2021/12/11 06:35:34;;;;;;;;;4.75;4.75;;;;;-149.00;100.00;66333.84;5119381;27;45254;-74
2021/12/11 06:38:00;;;;;;;;;8.50;8.00;;;;;-149.00;100.00;66333.84;5120712;27;45607;-74
2021/12/11 06:40:27;;;;;;;;;8.25;6.25;;;;;-149.00;100.00;66333.84;5119123;27;48631;-74
2021/12/11 06:42:54;;;;;;;;;9.50;7.75;;;;;-149.00;100.00;66333.84;5120377;27;45283;-75
2021/12/11 06:45:21;;;;;;;;;8.50;7.50;;;;;-149.00;100.00;66333.84;5119365;27;45245;-75
2021/12/11 06:47:47;;;;;;;;;8.50;7.75;;;;;-149.00;100.00;66333.84;5120469;27;45196;-75
2021/12/11 06:50:13;;;;;;;;;9.25;6.00;;;;;-149.00;100.00;66333.84;5116349;27;48123;-75
2021/12/11 06:52:41;;;;;;;;;6.25;6.25;;;;;-149.00;100.00;66333.84;5120211;27;45400;-76
2021/12/11 06:55:08;;;;;;;;;8.00;8.00;;;;;-149.00;100.00;66333.84;5120598;27;45239;-75
2021/12/11 06:57:33;;;;;;;;;6.75;6.25;;;;;-149.00;100.00;66333.84;5120602;27;45220;-75
2021/12/11 06:59:59;;;;;;;;;10.75;8.00;;;;;-149.00;100.00;66333.84;5119553;27;47092;-75
2021/12/11 07:02:24;;;;;;;;;7.75;7.75;;;;;-149.00;100.00;66333.84;5122652;27;45258;-75
2021/12/11 07:04:54;;;;;;;;;9.25;9.25;;;;;-149.00;100.00;66333.84;5124065;27;45206;-74
2021/12/11 07:07:23;;;;;;;;;9.50;8.75;;;;;-149.00;100.00;66333.84;5122260;27;45346;-75
2021/12/11 07:09:49;;;;;;;;;8.00;7.50;;;;;-149.00;100.00;66333.84;5121784;27;47583;-75
2021/12/11 07:12:15;;;;;;;;;10.00;9.00;;;;;-149.00;100.00;66333.84;5122645;27;45702;-74
2021/12/11 07:14:40;;;;;;;;;9.25;7.25;;;;;-149.00;100.00;66333.84;5124094;27;45272;-74
2021/12/11 07:17:06;;;;;;;;;9.25;9.25;;;;;-149.00;100.00;66333.84;5123953;27;45265;-75
2021/12/11 07:19:32;;;;;;;;;12.00;10.00;;;;;-149.00;100.00;66333.84;5120752;27;48105;-74
2021/12/11 07:21:57;;;;;;;;;7.75;7.50;;;;;-149.00;100.00;66333.84;5122195;27;45329;-75
2021/12/11 07:24:32;;;;;;;;;11.50;11.50;;;;;-149.00;100.00;66333.84;5123933;27;45550;-74
2021/12/11 07:27:01;;;;;;;;;9.25;8.00;;;;;-149.00;100.00;66333.84;5123639;27;45366;-74
2021/12/11 07:29:27;;;;;;;;;10.00;7.50;;;;;-149.00;100.00;66333.84;5122171;27;48289;-74
2021/12/11 07:31:53;;;;;;;;;8.00;6.25;;;;;-149.00;100.00;66333.84;5122156;27;45287;-75
2021/12/11 07:34:20;;;;;;;;;9.00;8.25;;;;;-149.00;100.00;66333.84;5123412;27;45305;-74
2021/12/11 07:36:46;;;;;;;;;7.50;6.00;;;;;-149.00;100.00;66333.84;5123413;27;45448;-74
2021/12/11 07:39:16;;;;;;;;;8.50;7.00;;;;;-149.00;100.00;66333.84;5123416;27;46579;-74
2021/12/11 07:41:42;;;;;;;;;8.25;7.50;;;;;-149.00;100.00;66333.84;5122977;27;45403;-74
2021/12/11 07:44:07;;;;;;;;;12.00;7.00;;;;;-149.00;100.00;66333.84;5120993;27;45343;-74
2021/12/11 07:46:34;;;;;;;;;7.00;6.50;;;;;-149.00;100.00;66333.84;5121771;27;45508;-74
2021/12/11 07:49:00;;;;;;;;;13.75;10.75;;;;;-149.00;100.00;66333.84;5123177;27;46304;-74
2021/12/11 07:51:27;;;;;;;;;15.50;13.25;;;;;-149.00;100.00;66333.84;5121927;27;45937;-74
2021/12/11 07:53:54;;;;;;;;;21.75;18.75;;;;;-149.00;100.00;66333.84;5122064;27;45328;-74
2021/12/11 07:56:21;;;;;;;;;17.00;15.75;;;;;-149.00;100.00;66333.84;5123245;27;45357;-74
2021/12/11 07:58:49;;;;;;;;;17.75;17.75;;;;;-149.00;100.00;66333.84;5123153;27;46532;-74
2021/12/11 08:01:15;;;;;;;;;14.25;14.25;;;;;-149.00;100.00;66333.84;5123074;27;45283;-74
2021/12/11 08:03:41;;;;;;;;;11.25;10.50;;;;;-149.00;100.00;66333.84;5121642;27;45290;-75
2021/12/11 08:06:08;;;;;;;;;16.50;13.25;;;;;-149.00;100.00;66333.84;5121577;27;47490;-74
2021/12/11 08:08:35;;;;;;;;;12.00;11.75;;;;;-149.00;100.00;66333.84;5123171;27;46448;-74
2021/12/11 08:11:05;;;;;;;;;11.00;11.00;;;;;-149.00;100.00;66333.84;5122762;27;45399;-74
2021/12/11 08:13:31;;;;;;;;;8.50;7.75;;;;;-149.00;100.00;66333.84;5121447;27;45458;-74
2021/12/11 08:15:57;;;;;;;;;6.75;6.75;;;;;-149.00;100.00;66333.84;5121449;27;45814;-75
2021/12/11 08:18:25;;;;;;;;;11.00;9.75;;;;;-149.00;100.00;66333.84;5122418;27;45358;-75
2021/12/11 08:20:51;;;;;;;;;9.75;8.25;;;;;-149.00;100.00;66333.84;5122719;27;45369;-75
2021/12/11 08:23:17;;;;;;;;;9.75;8.75;;;;;-149.00;100.00;66333.84;5121552;27;45353;-74
2021/12/11 08:25:44;;;;;;;;;11.75;11.75;;;;;-149.00;100.00;66333.84;5121249;27;46264;-75
2021/12/11 08:28:13;;;;;;;;;27.25;22.25;;;;;-149.00;100.00;66333.84;5122784;27;45412;-74
2021/12/11 08:30:41;;;;;;;;;39.25;37.25;;;;;-149.00;100.00;66333.84;5122689;27;45422;-75
2021/12/11 08:33:07;;;;;;;;;40.50;36.25;;;;;-149.00;100.00;66333.84;5122322;27;45382;-74
2021/12/11 08:35:32;;;;;;;;;31.00;28.00;;;;;-149.00;100.00;66333.84;5121104;27;47249;-74
2021/12/11 08:37:58;;;;;;;;;38.75;34.00;;;;;-149.00;100.00;66333.84;5122573;27;45498;-75
2021/12/11 08:40:31;;;;;;;;;43.25;37.00;;;;;-149.00;100.00;66333.84;5121077;27;45324;-74
2021/12/11 08:42:59;;;;;;;;;44.00;38.25;;;;;-149.00;100.00;66333.84;5121014;27;45271;-74
2021/12/11 08:45:36;;;;;;;;;27.50;27.00;;;;;-149.00;100.00;66333.84;5120934;27;47311;-75
2021/12/11 08:48:02;;;;;;;;;21.25;20.75;;;;;-149.00;100.00;66333.84;5122121;27;45384;-74
2021/12/11 08:50:30;;;;;;;;;18.50;17.25;;;;;-149.00;100.00;66333.84;5122262;27;45347;-75
2021/12/11 08:52:58;;;;;;;;;15.50;14.00;;;;;-149.00;100.00;66333.84;5121155;27;45331;-75
2021/12/11 08:55:33;;;;;;;;;14.00;13.00;;;;;-149.00;100.00;66333.84;5122171;27;45846;-76
2021/12/11 08:57:59;;;;;;;;;13.00;13.00;;;;;-149.00;100.00;66333.84;5120742;27;47658;-75
2021/12/11 09:00:34;;;;;;;;;13.00;11.75;;;;;-149.00;100.00;66333.84;5103497;27;45351;-74
2021/12/11 09:03:08;;;;;;;;;13.75;13.50;;;;;-149.00;100.00;66333.84;5120483;27;45308;-74
2021/12/11 09:05:40;;;;;;;;;13.75;13.25;;;;;-149.00;100.00;66333.84;5120381;27;45412;-76
2021/12/11 09:08:14;;;;;;;;;13.25;13.25;;;;;-149.00;100.00;66333.84;5120519;27;48245;-75
2021/12/11 09:10:55;;;;;;;;;15.00;14.75;;;;;-149.00;100.00;66333.84;5120558;27;45953;-74
2021/12/11 09:13:32;;;;;;;;;17.50;16.25;;;;;-149.00;100.00;66333.84;5122243;27;45216;-74
2021/12/11 09:16:12;;;;;;;;;17.50;16.25;;;;;-149.00;100.00;66333.84;5118651;27;46249;-75
2021/12/11 09:18:44;;;;;;;;;16.25;12.25;;;;;-149.00;100.00;66333.84;5118599;27;46974;-75
2021/12/11 09:21:15;;;;;;;;;18.75;17.50;;;;;-149.00;100.00;66333.84;5121782;27;45435;-75
2021/12/11 09:23:51;;;;;;;;;15.50;13.75;;;;;-149.00;100.00;66333.84;5119943;27;45177;-75
2021/12/11 09:26:25;;;;;;;;;27.00;25.00;;;;;-149.00;100.00;66333.84;5121448;27;45581;-74
2021/12/11 09:29:02;;;;;;;;;17.25;17.00;;;;;-149.00;100.00;66333.84;5121634;27;45388;-75
2021/12/11 09:31:37;;;;;;;;;18.00;17.50;;;;;-149.00;100.00;66333.84;5120264;27;45874;-74
2021/12/11 09:34:10;;;;;;;;;20.50;19.75;;;;;-149.00;100.00;66333.84;5120088;27;45460;-74
2021/12/11 09:36:41;;;;;;;;;28.00;28.00;;;;;-149.00;100.00;66333.84;5121560;27;45280;-74
2021/12/11 09:39:06;;;;;;;;;36.75;35.50;;;;;-149.00;100.00;66333.84;5121642;27;45266;-74
2021/12/11 09:41:33;;;;;;;;;22.50;19.25;;;;;-149.00;100.00;66333.84;5099626;27;45255;-74
2021/12/11 09:43:58;;;;;;;;;23.75;23.25;;;;;-149.00;100.00;66333.84;5100232;27;45282;-75
2021/12/11 09:46:32;;;;;;;;;28.50;27.50;;;;;-149.00;100.00;66333.84;5099974;27;45656;-75
2021/12/11 09:49:01;;;;;;;;;26.00;25.00;;;;;-149.00;100.00;66333.84;5099794;27;45525;-75
2021/12/11 09:51:32;;;;;;;;;32.50;26.25;;;;;-149.00;100.00;66333.84;5100270;27;45495;-76
2021/12/11 09:54:06;;;;;;;;;28.25;25.75;;;;;-149.00;100.00;66333.84;5099321;27;45276;-75
2021/12/11 09:56:40;;;;;;;;;28.75;25.00;;;;;-149.00;100.00;66333.84;5099016;27;46265;-75
2021/12/11 09:59:09;;;;;;;;;29.50;25.75;;;;;-149.00;100.00;66333.84;5100519;27;45404;-75
2021/12/11 10:01:39;;;;;;;;;27.00;24.50;;;;;-149.00;100.00;66333.84;5099025;27;45752;-75
2021/12/11 10:04:17;;;;;;;;;24.00;19.75;;;;;-149.00;100.00;66333.84;5098899;27;45614;-75
2021/12/11 10:07:12;;;;;;;;;23.75;23.75;;;;;-149.00;100.00;66333.84;5098848;27;46199;-75
2021/12/11 10:09:39;;;;;;;;;21.50;21.00;;;;;-149.00;100.00;66333.84;5100008;27;45365;-75
2021/12/11 10:12:12;;;;;;;;;25.00;22.00;;;;;-149.00;100.00;66333.84;5100429;27;45288;-75
2021/12/11 10:14:45;;;;;;;;;21.75;20.00;;;;;-149.00;100.00;66333.84;5100521;27;45263;-75
2021/12/11 10:17:20;;;;;;;;;22.75;22.00;;;;;-149.00;100.00;66333.84;5100245;27;45397;-75
2021/12/11 10:19:48;;;;;;;;;27.25;23.75;;;;;-149.00;100.00;66333.84;5098619;27;47341;-74
2021/12/11 10:22:20;;;;;;;;;23.00;21.25;;;;;-149.00;100.00;66333.84;5100427;27;45282;-75
2021/12/11 10:24:46;;;;;;;;;28.00;25.50;;;;;-149.00;100.00;66333.84;5100446;27;45286;-74
2021/12/11 10:27:20;;;;;;;;;32.75;27.00;;;;;-149.00;100.00;66333.84;5100134;27;45389;-74
2021/12/11 10:29:47;;;;;;;;;25.50;25.50;;;;;-149.00;100.00;66333.84;5098949;27;47480;-74
2021/12/11 10:32:18;;;;;;;;;31.00;27.50;;;;;-149.00;100.00;66333.84;5098557;27;45309;-74
2021/12/11 10:34:47;;;;;;;;;17.25;17.00;;;;;-149.00;100.00;66333.84;5100183;27;45332;-75
2021/12/11 10:37:19;;;;;;;;;27.25;25.25;;;;;-149.00;100.00;66333.84;5103681;27;45508;-75
2021/12/11 10:39:53;;;;;;;;;23.25;22.25;;;;;-149.00;100.00;66333.84;5103565;27;45319;-75
2021/12/11 10:42:19;;;;;;;;;24.25;23.00;;;;;-149.00;100.00;66333.84;5118886;27;45350;-75
2021/12/11 10:44:48;;;;;;;;;20.75;20.75;;;;;-149.00;100.00;66333.84;5124412;27;45322;-75
2021/12/11 10:47:24;;;;;;;;;20.50;17.50;;;;;-149.00;100.00;66333.84;5124299;27;45269;-75
2021/12/11 10:49:51;;;;;;;;;23.00;21.00;;;;;-149.00;100.00;66333.84;5122409;27;47193;-75
2021/12/11 10:52:23;;;;;;;;;21.50;21.25;;;;;-149.00;100.00;66333.84;5124008;27;45304;-75
2021/12/11 10:54:51;;;;;;;;;20.75;19.25;;;;;-149.00;100.00;66333.84;5122973;27;45413;-75
2021/12/11 10:57:18;;;;;;;;;25.75;22.25;;;;;-149.00;100.00;66333.84;5123974;27;45378;-75
2021/12/11 10:59:46;;;;;;;;;32.75;28.25;;;;;-149.00;100.00;66333.84;5122719;27;46255;-74
2021/12/11 11:02:15;;;;;;;;;42.25;35.75;;;;;-149.00;100.00;66333.84;5123700;27;45666;-75
2021/12/11 11:04:51;;;;;;;;;38.75;33.25;;;;;-149.00;100.00;66333.84;5124003;27;45261;-74
2021/12/11 11:07:17;;;;;;;;;26.75;26.75;;;;;-149.00;100.00;66333.84;5123785;27;45332;-75
2021/12/11 11:09:43;;;;;;;;;29.50;24.75;;;;;-149.00;100.00;66333.84;5122399;27;46978;-76
2021/12/11 11:12:14;;;;;;;;;22.75;21.50;;;;;-149.00;100.00;66333.84;5123927;27;45404;-76
2021/12/11 11:14:41;;;;;;;;;21.75;19.25;;;;;-149.00;100.00;66333.84;5122472;27;45240;-75
2021/12/11 11:17:14;;;;;;;;;19.33;18.00;;;;;-149.00;100.00;66333.84;5122332;27;46097;-75
2021/12/11 11:19:40;;;;;;;;;20.25;17.25;;;;;-149.00;100.00;66333.84;5122097;27;47364;-76
2021/12/11 11:22:11;;;;;;;;;25.75;23.75;;;;;-149.00;100.00;66333.84;5123917;27;45278;-75
2021/12/11 11:24:42;;;;;;;;;19.00;17.67;;;;;-149.00;100.00;66333.84;5122352;27;45379;-76
2021/12/11 11:27:07;;;;;;;;;14.67;14.67;;;;;-149.00;100.00;66333.84;5122220;27;47288;-74
2021/12/11 11:29:36;;;;;;;;;17.00;14.00;;;;;-149.00;100.00;66333.84;5122179;27;48481;-75
2021/12/11 11:32:07;;;;;;;;;16.00;14.00;;;;;-149.00;100.00;66333.84;5122479;27;45884;-75
2021/12/11 11:34:39;;;;;;;;;14.33;12.00;;;;;-149.00;100.00;66333.84;5123475;27;45286;-76